Aérodrome :
LOGIN :

S'inscrire | Disclaimer

   EN    FR    IT 

 










Légende :    VFR   VFR Marginal   IFR   IFR Intensif   IFR Très Intensif
Visi : 
Plafond : 
>= 8 km
>= 3000ft
5 à 8 km
1000 à 3000 ft
1500m à 5 km
500 à 1000 ft
800 à 1500m
200 à 500 ft
< 800m
< 200 ft
Symboles :   Orages  Brouillard  Fortes neiges  Fortes précipitations  Vent > 20 kt
SIGMETs :   Divers  Orages  Givrage  Turbulence  Onde Orograph.  Cendres Volcan.







- Altitude de l'aérodrome : 665 ft
- Code IATA : NOC


EIKN - Connaught / Knock- Ireland West

DERNIER METAR :
  • 180700Z 16002KT CAVOK 08/07 Q1029 NOSIG

METARs EXPIRÉS :
  • 180630Z 19003KT CAVOK 09/07 Q1029 NOSIG
  • 180600Z 19003KT 9999 FEW040 09/07 Q1029 NOSIG
  • 180530Z 17003KT 9999 FEW040 08/07 Q1029 NOSIG
  • 180500Z 16003KT 9999 FEW036 08/07 Q1029 NOSIG

TAF TAF EIKN
Valide du 18 à 06h jusqu'au 19 à 06h UTC


180500Z 1806/1906 VRB03KT 9999 FEW035
PROB40
TEMPO 1902/1906 4000 BR
Pas de NOTAMs connus pour ce terrain.



MET'MAP, la Météo Aéronautique d'un coup d'oeil ! - Copyright ORBIFLY Décembre 2007 - Disclaimer

ORBIFLY MET'MAP TEAM :

Programmation & Développement : Alexandra Zaïnal
Conception & Développement : Baudouin d'Aumeries
Co-Programmation & Développement : Marc-Olivier Méhu
Soutien technique & logistique : Manuel Goepfert

Contact : metmap@orbifly.com




SOURCES & CREDITS :

   NOAA